Russell, Massachusetts
Current Conditions -  °F | °C
As of 6:53 PM on Monday 24 Nov 2014 (Local Time) from KBAF Reporting Station
Clear Clear  
Wind Chill: 59°   Ceiling: Unl
Heat Index: 59°   Visibility: 10mi
Dew Point: 56°   Wind: 8mph
Humidity: 90%   Direction: 160°SSE
Pressure: 29.63"   Gusts: NA
Location:  42.19°N, 72.86°W
Report Text: KBAF 242353Z 16007KT 10SM CLR 15/13 A2963 RMK AO2 SLP035 T01500133 10183 20150 51026
Loading
Personal Weather Stations






























Interactive Weather Map New forecast layout! Learn more

10-Day Weather Forecast

Advertisements
Track Severe Weather on mobile